createdAt,value
2022-12-16T00:01:36.676Z,99632.16
2022-12-16T00:04:40.453Z,99619.38
2022-12-16T00:07:44.267Z,99618.84
2022-12-16T00:10:57.065Z,99621.72
2022-12-16T00:14:02.630Z,99612.41
2022-12-16T00:17:06.498Z,99613.34
2022-12-16T00:20:11.355Z,99620.47
2022-12-16T00:23:15.859Z,99631.38
2022-12-16T00:26:19.553Z,99626.63
2022-12-16T00:29:25.370Z,99631.19
2022-12-16T00:32:29.140Z,99624.56
2022-12-16T00:35:33.376Z,99628.41
2022-12-16T00:38:37.189Z,99623.09
2022-12-16T00:41:40.999Z,99629.78
2022-12-16T00:44:46.155Z,99636.59
2022-12-16T00:47:51.806Z,99638.47
2022-12-16T00:50:56.581Z,99643.63
2022-12-16T00:54:00.330Z,99635.47
2022-12-16T00:57:04.758Z,99632.97
2022-12-16T01:00:13.216Z,99630.47
2022-12-16T01:03:21.542Z,99614.47
2022-12-16T01:06:25.905Z,99604.84
2022-12-16T01:09:30.145Z,99608.13
2022-12-16T01:12:34.206Z,99618.78
2022-12-16T01:15:40.856Z,99629.84
2022-12-16T01:18:44.658Z,99644.91
2022-12-16T01:21:48.466Z,99653.66
2022-12-16T01:24:52.354Z,99652.53
2022-12-16T01:27:56.178Z,99666.91
2022-12-16T01:31:02.990Z,99660.00
2022-12-16T01:34:06.569Z,99657.13
2022-12-16T01:37:12.938Z,99652.13
2022-12-16T01:40:20.350Z,99637.53
2022-12-16T01:43:29.993Z,99637.72
2022-12-16T01:46:38.838Z,99630.50
2022-12-16T01:49:45.858Z,99630.25
2022-12-16T01:52:54.636Z,99619.22
2022-12-16T01:56:00.336Z,99614.41
2022-12-16T01:59:04.575Z,99626.63
2022-12-16T02:02:10.876Z,99596.78
2022-12-16T02:05:22.985Z,99587.38
2022-12-16T02:08:26.676Z,99593.00
2022-12-16T02:12:17.736Z,99602.03
2022-12-16T02:15:36.948Z,99600.19
2022-12-16T02:18:52.710Z,99607.75
2022-12-16T02:22:09.256Z,99594.84
2022-12-16T02:25:46.245Z,99579.97
2022-12-16T02:29:11.780Z,99593.19
2022-12-16T02:32:28.174Z,99594.00
2022-12-16T02:35:41.060Z,99596.50
2022-12-16T02:38:56.084Z,99581.66
2022-12-16T02:42:08.449Z,99591.94
2022-12-16T02:45:16.629Z,99592.81
2022-12-16T02:48:21.742Z,99611.09
2022-12-16T02:51:27.756Z,99605.44
2022-12-16T02:54:31.717Z,99602.41
2022-12-16T02:57:59.598Z,99598.69
2022-12-16T03:01:11.205Z,99589.31
2022-12-16T03:04:20.971Z,99586.44
2022-12-16T03:07:28.369Z,99587.03
2022-12-16T03:10:36.789Z,99589.91
2022-12-16T03:13:44.581Z,99590.38
2022-12-16T03:16:49.542Z,99603.06
2022-12-16T03:20:03.027Z,99602.50
2022-12-16T03:23:11.695Z,99602.16
2022-12-16T03:26:20.477Z,99609.59
2022-12-16T03:29:29.316Z,99606.81
2022-12-16T03:32:39.355Z,99614.16
2022-12-16T03:35:50.489Z,99612.50
2022-12-16T03:38:57.491Z,99621.44
2022-12-16T03:42:04.265Z,99623.47
2022-12-16T03:45:12.729Z,99622.09
2022-12-16T03:48:19.087Z,99623.25
2022-12-16T03:51:24.610Z,99640.84
2022-12-16T03:54:28.609Z,99638.50
2022-12-16T03:57:32.576Z,99636.91
2022-12-16T04:00:36.349Z,99637.38
2022-12-16T04:03:40.315Z,99631.28
2022-12-16T04:06:45.746Z,99628.47
2022-12-16T04:09:50.341Z,99625.25
2022-12-16T04:13:11.329Z,99617.38
2022-12-16T04:16:34.748Z,99606.00
2022-12-16T04:19:57.049Z,99613.44
2022-12-16T04:23:19.931Z,99611.94
2022-12-16T04:26:24.410Z,99619.16
2022-12-16T04:29:28.316Z,99632.72
2022-12-16T04:32:53.674Z,99619.03
2022-12-16T04:36:26.566Z,99627.28
2022-12-16T04:39:49.028Z,99621.44
2022-12-16T04:43:10.007Z,99627.97
2022-12-16T04:46:27.433Z,99635.72
2022-12-16T04:49:48.509Z,99647.06
2022-12-16T04:53:09.955Z,99642.63
2022-12-16T04:56:32.317Z,99642.47
2022-12-16T04:59:53.285Z,99661.84
2022-12-16T05:03:15.294Z,99643.13
2022-12-16T05:06:36.830Z,99644.41
2022-12-16T05:09:58.051Z,99635.09
2022-12-16T05:13:20.828Z,99627.97
2022-12-16T05:16:42.038Z,99640.56
2022-12-16T05:20:03.397Z,99633.94
2022-12-16T05:23:24.665Z,99622.09
2022-12-16T05:26:45.506Z,99626.19
2022-12-16T05:30:07.815Z,99633.16
2022-12-16T05:33:29.050Z,99640.59
2022-12-16T05:36:49.949Z,99643.69
2022-12-16T05:40:10.989Z,99657.41
2022-12-16T05:43:32.277Z,99661.09
2022-12-16T05:47:10.097Z,99645.34
2022-12-16T05:50:31.724Z,99642.03
2022-12-16T05:54:01.492Z,99642.09
2022-12-16T05:57:22.711Z,99635.88
2022-12-16T06:00:44.018Z,99632.25
2022-12-16T06:04:06.824Z,99655.22
2022-12-16T06:07:36.358Z,99669.41
2022-12-16T06:10:57.389Z,99674.66
2022-12-16T06:14:18.404Z,99674.78
2022-12-16T06:17:41.067Z,99677.69
2022-12-16T06:21:04.027Z,99684.66
2022-12-16T06:24:25.607Z,99683.31
2022-12-16T06:27:47.017Z,99684.97
2022-12-16T06:31:08.197Z,99704.72
2022-12-16T06:34:29.368Z,99704.84
2022-12-16T06:37:51.737Z,99727.31
2022-12-16T06:41:12.804Z,99724.50
2022-12-16T06:44:33.918Z,99724.38
2022-12-16T06:47:54.989Z,99725.34
2022-12-16T06:51:16.048Z,99725.75
2022-12-16T06:54:38.659Z,99715.16
2022-12-16T06:57:59.808Z,99716.81
2022-12-16T07:01:21.038Z,99729.09
2022-12-16T07:04:42.374Z,99743.22
2022-12-16T07:08:06.915Z,99733.63
2022-12-16T07:11:29.146Z,99746.81
2022-12-16T07:14:50.388Z,99756.03
2022-12-16T07:18:11.546Z,99767.56
2022-12-16T07:21:32.583Z,99766.38
2022-12-16T07:24:53.540Z,99754.78
2022-12-16T07:28:16.206Z,99764.88
2022-12-16T07:31:37.368Z,99776.41
2022-12-16T07:34:58.629Z,99782.19
2022-12-16T07:38:19.559Z,99792.09
2022-12-16T07:41:41.043Z,99793.53
2022-12-16T07:45:03.786Z,99783.25
2022-12-16T07:48:25.230Z,99771.66
2022-12-16T07:51:46.219Z,99787.53
2022-12-16T07:55:07.129Z,99780.97
2022-12-16T07:58:29.856Z,99766.88
2022-12-16T08:01:52.715Z,99776.56
2022-12-16T08:05:16.185Z,99766.97
2022-12-16T08:08:37.324Z,99761.28
2022-12-16T08:11:58.536Z,99764.00
2022-12-16T08:15:19.579Z,99762.81
2022-12-16T08:18:41.889Z,99750.56
2022-12-16T08:22:03.196Z,99761.34
2022-12-16T08:25:24.285Z,99758.34
2022-12-16T08:28:45.656Z,99761.13
2022-12-16T08:32:06.920Z,99744.25
2022-12-16T08:35:29.676Z,99736.53
2022-12-16T08:38:50.780Z,99728.31
2022-12-16T08:42:12.062Z,99716.81
2022-12-16T08:45:33.057Z,99742.78
2022-12-16T08:48:54.277Z,99757.69
2022-12-16T08:52:18.652Z,99731.50
2022-12-16T08:55:39.755Z,99741.22
2022-12-16T08:59:00.869Z,99734.66
2022-12-16T09:02:22.204Z,99717.63
2022-12-16T09:05:43.570Z,99711.03
2022-12-16T09:09:06.211Z,99706.03
2022-12-16T09:12:26.870Z,99694.72
2022-12-16T09:15:48.206Z,99700.59
2022-12-16T09:19:17.675Z,99706.22
2022-12-16T09:22:38.367Z,99697.50
2022-12-16T09:26:01.091Z,99690.91
2022-12-16T09:29:22.338Z,99670.75
2022-12-16T09:32:43.372Z,99668.56
2022-12-16T09:36:04.707Z,99672.25
2022-12-16T09:39:26.177Z,99665.78
2022-12-16T09:43:00.476Z,99659.97
2022-12-16T09:46:27.817Z,99668.88
2022-12-16T09:50:02.697Z,99659.44
2022-12-16T09:53:29.489Z,99653.09
2022-12-16T09:56:55.225Z,99668.75
2022-12-16T10:00:21.267Z,99656.34
2022-12-16T10:03:46.361Z,99653.09
2022-12-16T10:07:15.931Z,99649.53
2022-12-16T10:10:45.999Z,99647.75
2022-12-16T10:14:19.632Z,99645.31
2022-12-16T10:17:44.705Z,99652.25
2022-12-16T10:21:10.270Z,99648.09
2022-12-16T10:24:44.475Z,99632.84
2022-12-16T10:28:07.037Z,99630.91
2022-12-16T10:31:34.243Z,99628.72
2022-12-16T10:34:59.050Z,99617.88
2022-12-16T10:38:21.429Z,99615.25
2022-12-16T10:41:45.638Z,99627.75
2022-12-16T10:45:11.290Z,99628.81
2022-12-16T10:48:33.704Z,99627.03
2022-12-16T10:51:55.287Z,99629.63
2022-12-16T10:55:25.676Z,99630.28
2022-12-16T10:58:55.871Z,99625.97
2022-12-16T11:02:18.887Z,99614.72
2022-12-16T11:05:48.166Z,99629.56
2022-12-16T11:09:10.836Z,99632.84
2022-12-16T11:12:43.600Z,99633.50
2022-12-16T11:16:04.911Z,99643.25
2022-12-16T11:19:44.210Z,99638.31
2022-12-16T11:23:04.919Z,99629.88
2022-12-16T11:26:36.353Z,99629.94
2022-12-16T11:30:12.246Z,99631.13
2022-12-16T11:33:39.850Z,99634.09
2022-12-16T11:37:02.690Z,99629.91
2022-12-16T11:40:25.739Z,99624.44
2022-12-16T11:43:51.775Z,99612.38
2022-12-16T11:47:13.387Z,99615.47
2022-12-16T11:50:44.536Z,99613.25
2022-12-16T11:54:11.128Z,99606.50
2022-12-16T11:57:39.697Z,99604.41
2022-12-16T12:01:13.419Z,99608.19
2022-12-16T12:04:35.117Z,99611.66
2022-12-16T12:08:07.423Z,99598.13
2022-12-16T12:11:37.999Z,99595.19
2022-12-16T12:15:07.250Z,99605.34
2022-12-16T12:18:40.444Z,99611.41
2022-12-16T12:22:09.292Z,99623.66
2022-12-16T12:25:40.638Z,99619.09
2022-12-16T12:29:10.835Z,99610.47
2022-12-16T12:32:44.289Z,99618.34
2022-12-16T12:36:16.316Z,99617.84
2022-12-16T12:39:43.160Z,99619.78
2022-12-16T12:43:08.416Z,99617.63
2022-12-16T12:46:35.963Z,99619.19
2022-12-16T12:50:05.277Z,99608.88
2022-12-16T12:53:42.449Z,99601.25
2022-12-16T12:57:08.311Z,99600.75
2022-12-16T13:00:36.245Z,99598.44
2022-12-16T13:04:01.765Z,99598.81
2022-12-16T13:07:23.541Z,99601.09
2022-12-16T13:10:55.356Z,99608.50
2022-12-16T13:14:16.297Z,99611.09
2022-12-16T13:17:38.301Z,99615.53
2022-12-16T13:20:59.495Z,99617.66
2022-12-16T13:24:36.245Z,99617.56
2022-12-16T13:28:15.475Z,99621.56
2022-12-16T13:31:37.009Z,99625.28
2022-12-16T13:34:58.159Z,99633.03
2022-12-16T13:38:21.559Z,99626.78
2022-12-16T13:42:08.929Z,99629.41
2022-12-16T13:45:49.238Z,99639.56
2022-12-16T13:49:10.448Z,99640.69
2022-12-16T13:52:35.668Z,99639.38
2022-12-16T13:56:01.258Z,99638.44
2022-12-16T13:59:30.439Z,99642.41
2022-12-16T14:03:07.926Z,99638.75
2022-12-16T14:06:34.216Z,99629.47
2022-12-16T14:09:57.129Z,99624.88
2022-12-16T14:13:39.619Z,99622.00
2022-12-16T14:17:09.974Z,99642.47
2022-12-16T14:20:40.058Z,99635.06
2022-12-16T14:24:05.241Z,99639.03
2022-12-16T14:27:33.086Z,99646.41
2022-12-16T14:30:55.079Z,99647.63
2022-12-16T14:34:16.190Z,99636.78
2022-12-16T14:37:41.063Z,99643.88
2022-12-16T14:41:08.949Z,99641.66
2022-12-16T14:44:37.375Z,99645.41
2022-12-16T14:47:59.056Z,99657.69
2022-12-16T14:51:35.266Z,99664.81
2022-12-16T14:55:01.049Z,99667.13
2022-12-16T14:58:24.941Z,99670.56
2022-12-16T15:01:46.135Z,99668.03
2022-12-16T15:05:07.755Z,99673.19
2022-12-16T15:08:31.210Z,99669.63
2022-12-16T15:11:55.698Z,99660.97
2022-12-16T15:15:17.209Z,99661.31
2022-12-16T15:18:41.327Z,99662.97
2022-12-16T15:22:02.821Z,99671.72
2022-12-16T15:25:24.876Z,99671.81
2022-12-16T15:28:58.481Z,99681.00
2022-12-16T15:32:19.648Z,99677.94
2022-12-16T15:35:50.901Z,99672.59
2022-12-16T15:39:11.770Z,99682.09
2022-12-16T15:42:39.272Z,99690.09
2022-12-16T15:46:07.678Z,99688.47
2022-12-16T15:49:37.831Z,99682.41
2022-12-16T15:53:01.169Z,99685.41
2022-12-16T15:56:22.117Z,99701.72
2022-12-16T15:59:45.649Z,99690.13
2022-12-16T16:03:08.330Z,99695.44
2022-12-16T16:06:37.096Z,99697.50
2022-12-16T16:09:58.636Z,99700.03
2022-12-16T16:13:19.691Z,99699.44
2022-12-16T16:16:40.778Z,99701.34
2022-12-16T16:20:03.934Z,99706.47
2022-12-16T16:23:25.231Z,99704.56
2022-12-16T16:26:46.815Z,99708.41
2022-12-16T16:30:07.669Z,99719.38
2022-12-16T16:33:43.249Z,99716.47
2022-12-16T16:37:08.336Z,99715.81
2022-12-16T16:40:36.902Z,99722.03
2022-12-16T16:43:57.918Z,99723.94
2022-12-16T16:47:20.004Z,99736.84
2022-12-16T16:50:41.159Z,99727.91
2022-12-16T16:54:04.639Z,99726.66
2022-12-16T16:57:29.078Z,99731.75
2022-12-16T17:00:50.431Z,99720.88
2022-12-16T17:04:11.912Z,99727.19
2022-12-16T17:07:33.199Z,99730.50
2022-12-16T17:10:56.204Z,99725.31
2022-12-16T17:14:17.236Z,99722.81
2022-12-16T17:17:38.310Z,99729.97
2022-12-16T17:20:59.247Z,99715.38
2022-12-16T17:24:20.286Z,99712.53
2022-12-16T17:27:44.556Z,99714.59
2022-12-16T17:31:05.628Z,99714.31
2022-12-16T17:34:26.765Z,99709.38
2022-12-16T17:37:47.837Z,99724.31
2022-12-16T17:41:11.217Z,99716.22
2022-12-16T17:44:34.448Z,99712.25
2022-12-16T17:47:51.939Z,99708.81
2022-12-16T17:51:13.095Z,99716.47
2022-12-16T17:54:34.355Z,99714.69
2022-12-16T17:57:55.397Z,99708.38
2022-12-16T18:01:20.770Z,99711.81
2022-12-16T18:04:41.688Z,99709.25
2022-12-16T18:08:02.667Z,99701.66
2022-12-16T18:11:24.249Z,99712.09
2022-12-16T18:14:45.316Z,99718.94
2022-12-16T18:18:08.577Z,99722.94
2022-12-16T18:21:30.490Z,99714.00
2022-12-16T18:24:53.685Z,99706.03
2022-12-16T18:28:14.535Z,99704.94
2022-12-16T18:31:35.696Z,99714.59
2022-12-16T18:34:57.955Z,99711.25
2022-12-16T18:38:18.671Z,99688.84
2022-12-16T18:41:41.301Z,99705.22
2022-12-16T18:45:02.435Z,99696.44
2022-12-16T18:48:24.095Z,99684.91
2022-12-16T18:51:46.369Z,99684.03
2022-12-16T18:55:07.670Z,99694.78
2022-12-16T18:58:50.231Z,99681.88
2022-12-16T19:02:10.463Z,99683.09
2022-12-16T19:05:32.100Z,99680.84
2022-12-16T19:08:54.880Z,99666.75
2022-12-16T19:12:17.044Z,99674.16
2022-12-16T19:15:41.412Z,99668.94
2022-12-16T19:19:02.964Z,99681.56
2022-12-16T19:22:24.293Z,99683.38
2022-12-16T19:25:47.179Z,99687.56
2022-12-16T19:29:08.153Z,99695.13
2022-12-16T19:32:30.375Z,99697.31
2022-12-16T19:35:53.735Z,99695.94
2022-12-16T19:39:15.022Z,99699.78
2022-12-16T19:42:48.634Z,99698.44
2022-12-16T19:46:13.188Z,99692.38
2022-12-16T19:49:36.298Z,99692.38
2022-12-16T19:53:00.619Z,99693.44
2022-12-16T19:56:21.774Z,99698.22
2022-12-16T19:59:44.694Z,99699.31
2022-12-16T20:03:05.902Z,99713.06
2022-12-16T20:06:28.177Z,99700.72
2022-12-16T20:09:49.516Z,99716.09
2022-12-16T20:13:07.019Z,99708.03
2022-12-16T20:16:30.475Z,99711.50
2022-12-16T20:19:51.579Z,99711.50
2022-12-16T20:23:14.685Z,99709.34
2022-12-16T20:26:36.112Z,99705.25
2022-12-16T20:29:57.226Z,99724.44
2022-12-16T20:33:19.377Z,99708.66
2022-12-16T20:36:40.433Z,99702.72
2022-12-16T20:40:01.701Z,99716.28
2022-12-16T20:43:23.154Z,99718.38
2022-12-16T20:46:45.889Z,99701.38
2022-12-16T20:50:08.519Z,99722.69
2022-12-16T20:53:30.092Z,99718.84
2022-12-16T20:56:51.033Z,99713.41
2022-12-16T21:00:14.194Z,99715.06
2022-12-16T21:03:35.360Z,99714.06
2022-12-16T21:07:06.614Z,99712.16
2022-12-16T21:10:28.360Z,99709.38
2022-12-16T21:13:49.828Z,99726.28
2022-12-16T21:17:16.505Z,99719.81
2022-12-16T21:20:37.256Z,99717.91
2022-12-16T21:23:59.921Z,99707.03
2022-12-16T21:27:20.797Z,99710.63
2022-12-16T21:30:41.846Z,99713.75
2022-12-16T21:34:02.878Z,99717.59
2022-12-16T21:37:23.889Z,99729.97
2022-12-16T21:40:46.209Z,99716.00
2022-12-16T21:44:09.441Z,99714.84
2022-12-16T21:47:30.696Z,99716.38
2022-12-16T21:50:51.769Z,99715.97
2022-12-16T21:54:12.845Z,99723.91
2022-12-16T21:57:35.596Z,99714.69
2022-12-16T22:01:00.613Z,99700.03
2022-12-16T22:04:21.873Z,99711.97
2022-12-16T22:07:43.015Z,99712.78
2022-12-16T22:11:03.305Z,99704.94
2022-12-16T22:14:26.125Z,99716.97
2022-12-16T22:17:47.249Z,99698.13
2022-12-16T22:21:15.877Z,99701.69
2022-12-16T22:24:36.889Z,99703.91
2022-12-16T22:27:57.894Z,99686.31
2022-12-16T22:31:20.602Z,99696.91
2022-12-16T22:34:41.708Z,99690.47
2022-12-16T22:38:02.901Z,99682.59
2022-12-16T22:41:24.156Z,99687.41
2022-12-16T22:44:45.505Z,99690.13
2022-12-16T22:48:07.557Z,99675.44
2022-12-16T22:51:32.399Z,99679.69
2022-12-16T22:54:53.412Z,99697.09
2022-12-16T22:58:14.379Z,99677.44
2022-12-16T23:01:43.553Z,99692.06
2022-12-16T23:05:06.562Z,99686.28
2022-12-16T23:08:27.850Z,99669.25
2022-12-16T23:11:53.321Z,99671.38
2022-12-16T23:15:18.028Z,99674.00
2022-12-16T23:18:39.160Z,99660.03
2022-12-16T23:22:01.971Z,99644.53
2022-12-16T23:25:23.482Z,99656.13
2022-12-16T23:28:55.142Z,99648.38
2022-12-16T23:32:18.005Z,99656.19
2022-12-16T23:35:39.011Z,99649.94
2022-12-16T23:39:02.098Z,99642.81
2022-12-16T23:42:23.580Z,99643.09
2022-12-16T23:45:44.729Z,99639.94
2022-12-16T23:49:06.988Z,99637.50
2022-12-16T23:52:28.132Z,99633.19
2022-12-16T23:55:50.334Z,99643.34
2022-12-16T23:59:11.700Z,99627.84
